Four Corners Rgnl Information

FAA: FMN - ICAO: KFMN

Four Corners Rgnl (Airport) Location

State New Mexico
County San Juan
City Farmington
Four Corners Rgnl (Airport) is 1 mile northwest of Farmington, NM.
Latitude 36-44-28.5000N
Longitude 108-13-47.8000W
Elevation 5,506ft

Four Corners Rgnl METARs

METAR KFMN 181153Z AUTO 08006KT 10SM BKN070 M07/M09 A3005 RMK AO2 SLP195 T10671094 11033 21072 58005
Altimeter 30.05"
Temperature -6.7°C (19.9°F)
Wind 80° at 6KT
Clouds broken at 7,000ft
Visibility 10.0mi
Time observed: 2022-01-18T11:53:00Z

Four Corners Rgnl (Airport) Details

Status Operational
Activation N/A
Ownership Public
Usage Public
Chart DENVER
ATC on-site Yes
Beacon schedule sunset-sunrise
Beacon color clear green

Four Corners Rgnl (Airport) Contacts

Owner CITY OF FARMINGTON
Owner address 800 MUNICIPAL DRIVE, FARMINGTON, NM 87401
Owner phone 505-599-1100
Manager AMEN WARDY
Manager address 1201 NORTH MESA, EL PASO, TX 79902
Manager phone 915-584-0505

Four Corners Rgnl Radio Frequencies

Four Corners Rgnl (Airport) Radio Frequencies

UNICOM 122.95
Common traffic advisory frequency (CTAF) 118.9